sensor_id;sensor_type;location;lat;lon;timestamp;temperature;humidity
15749;DHT22;7976;52.526;13.326;2023-03-23T00:01:28;13.10;99.90
15749;DHT22;7976;52.526;13.326;2023-03-23T00:03:58;13.00;99.90
15749;DHT22;7976;52.526;13.326;2023-03-23T00:06:27;13.00;99.90
15749;DHT22;7976;52.526;13.326;2023-03-23T00:09:01;13.00;99.90
15749;DHT22;7976;52.526;13.326;2023-03-23T00:11:30;13.00;99.90
15749;DHT22;7976;52.526;13.326;2023-03-23T00:14:00;13.00;99.90
15749;DHT22;7976;52.526;13.326;2023-03-23T00:16:29;12.90;99.90
15749;DHT22;7976;52.526;13.326;2023-03-23T00:18:59;12.90;99.90
15749;DHT22;7976;52.526;13.326;2023-03-23T00:21:28;12.90;99.90
15749;DHT22;7976;52.526;13.326;2023-03-23T00:24:03;12.90;99.90
15749;DHT22;7976;52.526;13.326;2023-03-23T00:26:31;12.90;99.90
15749;DHT22;7976;52.526;13.326;2023-03-23T00:29:00;12.90;99.90
15749;DHT22;7976;52.526;13.326;2023-03-23T00:31:28;12.90;99.90
15749;DHT22;7976;52.526;13.326;2023-03-23T00:33:57;12.90;99.90
15749;DHT22;7976;52.526;13.326;2023-03-23T00:36:26;12.90;99.90
15749;DHT22;7976;52.526;13.326;2023-03-23T00:38:54;12.90;99.90
15749;DHT22;7976;52.526;13.326;2023-03-23T00:41:26;12.90;99.90
15749;DHT22;7976;52.526;13.326;2023-03-23T00:43:54;12.80;99.90
15749;DHT22;7976;52.526;13.326;2023-03-23T00:46:22;12.80;99.90
15749;DHT22;7976;52.526;13.326;2023-03-23T00:48:50;12.80;99.90
15749;DHT22;7976;52.526;13.326;2023-03-23T00:51:17;12.80;99.90
15749;DHT22;7976;52.526;13.326;2023-03-23T00:53:45;12.80;99.90
15749;DHT22;7976;52.526;13.326;2023-03-23T00:56:13;12.80;99.90
15749;DHT22;7976;52.526;13.326;2023-03-23T00:58:41;12.80;99.90
15749;DHT22;7976;52.526;13.326;2023-03-23T01:01:08;12.70;99.90
15749;DHT22;7976;52.526;13.326;2023-03-23T01:03:36;12.70;99.90
15749;DHT22;7976;52.526;13.326;2023-03-23T01:06:07;12.70;99.90
15749;DHT22;7976;52.526;13.326;2023-03-23T01:08:38;12.70;99.90
15749;DHT22;7976;52.526;13.326;2023-03-23T01:11:11;12.70;99.90
15749;DHT22;7976;52.526;13.326;2023-03-23T01:13:42;12.60;99.90
15749;DHT22;7976;52.526;13.326;2023-03-23T01:16:10;12.60;99.90
15749;DHT22;7976;52.526;13.326;2023-03-23T01:18:38;12.60;99.90
15749;DHT22;7976;52.526;13.326;2023-03-23T01:21:06;12.60;99.90
15749;DHT22;7976;52.526;13.326;2023-03-23T01:23:34;12.50;99.90
15749;DHT22;7976;52.526;13.326;2023-03-23T01:26:05;12.50;99.90
15749;DHT22;7976;52.526;13.326;2023-03-23T01:28:34;12.50;99.90
15749;DHT22;7976;52.526;13.326;2023-03-23T01:31:05;12.50;99.90
15749;DHT22;7976;52.526;13.326;2023-03-23T01:33:34;12.50;99.90
15749;DHT22;7976;52.526;13.326;2023-03-23T01:36:04;12.50;99.90
15749;DHT22;7976;52.526;13.326;2023-03-23T01:38:32;12.50;99.90
15749;DHT22;7976;52.526;13.326;2023-03-23T01:41:00;12.50;99.90
15749;DHT22;7976;52.526;13.326;2023-03-23T01:43:28;12.50;99.90
15749;DHT22;7976;52.526;13.326;2023-03-23T01:45:55;12.50;99.90
15749;DHT22;7976;52.526;13.326;2023-03-23T01:48:25;12.50;99.90
15749;DHT22;7976;52.526;13.326;2023-03-23T01:50:59;12.50;99.90
15749;DHT22;7976;52.526;13.326;2023-03-23T01:53:33;12.50;99.90
15749;DHT22;7976;52.526;13.326;2023-03-23T01:56:06;12.50;99.90
15749;DHT22;7976;52.526;13.326;2023-03-23T01:58:37;12.50;99.90
15749;DHT22;7976;52.526;13.326;2023-03-23T02:01:09;12.50;99.90
15749;DHT22;7976;52.526;13.326;2023-03-23T02:03:41;12.50;99.90
15749;DHT22;7976;52.526;13.326;2023-03-23T02:06:11;12.50;99.90
15749;DHT22;7976;52.526;13.326;2023-03-23T02:08:56;12.50;99.90
15749;DHT22;7976;52.526;13.326;2023-03-23T02:11:24;12.50;99.90
15749;DHT22;7976;52.526;13.326;2023-03-23T02:13:51;12.50;99.90
15749;DHT22;7976;52.526;13.326;2023-03-23T02:16:26;12.50;99.90
15749;DHT22;7976;52.526;13.326;2023-03-23T02:19:13;12.50;99.90
15749;DHT22;7976;52.526;13.326;2023-03-23T02:22:10;12.50;99.90
15749;DHT22;7976;52.526;13.326;2023-03-23T02:25:05;12.50;99.90
15749;DHT22;7976;52.526;13.326;2023-03-23T02:28:11;12.60;99.90
15749;DHT22;7976;52.526;13.326;2023-03-23T02:31:11;12.60;99.90
15749;DHT22;7976;52.526;13.326;2023-03-23T02:33:50;12.60;99.90
15749;DHT22;7976;52.526;13.326;2023-03-23T02:36:27;12.60;99.90
15749;DHT22;7976;52.526;13.326;2023-03-23T02:39:02;12.60;99.90
15749;DHT22;7976;52.526;13.326;2023-03-23T02:41:39;12.70;99.90
15749;DHT22;7976;52.526;13.326;2023-03-23T02:44:10;12.60;99.90
15749;DHT22;7976;52.526;13.326;2023-03-23T02:46:40;12.60;99.90
15749;DHT22;7976;52.526;13.326;2023-03-23T02:49:12;12.60;99.90
15749;DHT22;7976;52.526;13.326;2023-03-23T02:51:43;12.50;99.90
15749;DHT22;7976;52.526;13.326;2023-03-23T02:54:13;12.40;99.90
15749;DHT22;7976;52.526;13.326;2023-03-23T02:56:44;12.30;99.90
15749;DHT22;7976;52.526;13.326;2023-03-23T02:59:19;12.30;99.90
15749;DHT22;7976;52.526;13.326;2023-03-23T03:02:01;12.30;99.90
15749;DHT22;7976;52.526;13.326;2023-03-23T03:04:33;12.30;99.90
15749;DHT22;7976;52.526;13.326;2023-03-23T03:07:30;12.30;99.90
15749;DHT22;7976;52.526;13.326;2023-03-23T03:10:08;12.20;99.90
15749;DHT22;7976;52.526;13.326;2023-03-23T03:12:45;12.30;99.90
15749;DHT22;7976;52.526;13.326;2023-03-23T03:15:23;12.30;99.90
15749;DHT22;7976;52.526;13.326;2023-03-23T03:18:00;12.30;99.90
15749;DHT22;7976;52.526;13.326;2023-03-23T03:20:38;12.30;99.90
15749;DHT22;7976;52.526;13.326;2023-03-23T03:23:11;12.30;99.90
15749;DHT22;7976;52.526;13.326;2023-03-23T03:25:43;12.40;99.90
15749;DHT22;7976;52.526;13.326;2023-03-23T03:28:19;12.40;99.90
15749;DHT22;7976;52.526;13.326;2023-03-23T03:30:52;12.40;99.90
15749;DHT22;7976;52.526;13.326;2023-03-23T03:33:22;12.40;99.90
15749;DHT22;7976;52.526;13.326;2023-03-23T03:35:56;12.40;99.90
15749;DHT22;7976;52.526;13.326;2023-03-23T03:38:25;12.30;99.90
15749;DHT22;7976;52.526;13.326;2023-03-23T03:40:54;12.40;99.90
15749;DHT22;7976;52.526;13.326;2023-03-23T03:43:23;12.30;99.90
15749;DHT22;7976;52.526;13.326;2023-03-23T03:45:50;12.20;99.90
15749;DHT22;7976;52.526;13.326;2023-03-23T03:48:17;12.20;99.90
15749;DHT22;7976;52.526;13.326;2023-03-23T03:50:44;12.10;99.90
15749;DHT22;7976;52.526;13.326;2023-03-23T03:53:12;12.00;99.90
15749;DHT22;7976;52.526;13.326;2023-03-23T03:55:42;12.00;99.90
15749;DHT22;7976;52.526;13.326;2023-03-23T03:58:14;12.00;99.90
15749;DHT22;7976;52.526;13.326;2023-03-23T04:01:06;12.00;99.90
15749;DHT22;7976;52.526;13.326;2023-03-23T04:03:37;12.00;99.90
15749;DHT22;7976;52.526;13.326;2023-03-23T04:06:10;12.00;99.90
15749;DHT22;7976;52.526;13.326;2023-03-23T04:08:39;12.00;99.90
15749;DHT22;7976;52.526;13.326;2023-03-23T04:11:08;12.00;99.90
15749;DHT22;7976;52.526;13.326;2023-03-23T04:13:36;12.00;99.90
15749;DHT22;7976;52.526;13.326;2023-03-23T04:16:04;12.00;99.90
15749;DHT22;7976;52.526;13.326;2023-03-23T04:18:33;12.00;99.90
15749;DHT22;7976;52.526;13.326;2023-03-23T04:21:01;12.10;99.90
15749;DHT22;7976;52.526;13.326;2023-03-23T04:23:31;12.10;99.90
15749;DHT22;7976;52.526;13.326;2023-03-23T04:26:03;12.10;99.90
15749;DHT22;7976;52.526;13.326;2023-03-23T04:28:36;12.10;99.90
15749;DHT22;7976;52.526;13.326;2023-03-23T04:31:24;12.10;99.90
15749;DHT22;7976;52.526;13.326;2023-03-23T04:33:58;12.20;99.90
15749;DHT22;7976;52.526;13.326;2023-03-23T04:36:26;12.20;99.90
15749;DHT22;7976;52.526;13.326;2023-03-23T04:38:59;12.20;99.90
15749;DHT22;7976;52.526;13.326;2023-03-23T04:41:30;12.20;99.90
15749;DHT22;7976;52.526;13.326;2023-03-23T04:44:16;12.20;99.90
15749;DHT22;7976;52.526;13.326;2023-03-23T04:46:53;12.10;99.90
15749;DHT22;7976;52.526;13.326;2023-03-23T04:49:21;12.10;99.90
15749;DHT22;7976;52.526;13.326;2023-03-23T04:51:54;12.10;99.90
15749;DHT22;7976;52.526;13.326;2023-03-23T04:54:51;12.10;99.90
15749;DHT22;7976;52.526;13.326;2023-03-23T04:57:20;12.00;99.90
15749;DHT22;7976;52.526;13.326;2023-03-23T05:00:08;11.90;99.90
15749;DHT22;7976;52.526;13.326;2023-03-23T05:02:43;11.90;99.90
15749;DHT22;7976;52.526;13.326;2023-03-23T05:05:13;11.80;99.90
15749;DHT22;7976;52.526;13.326;2023-03-23T05:07:42;11.80;99.90
15749;DHT22;7976;52.526;13.326;2023-03-23T05:10:10;11.70;99.90
15749;DHT22;7976;52.526;13.326;2023-03-23T05:12:40;11.70;99.90
15749;DHT22;7976;52.526;13.326;2023-03-23T05:15:11;11.70;99.90
15749;DHT22;7976;52.526;13.326;2023-03-23T05:17:39;11.70;99.90
15749;DHT22;7976;52.526;13.326;2023-03-23T05:20:14;11.60;99.90
15749;DHT22;7976;52.526;13.326;2023-03-23T05:22:48;11.60;99.90
15749;DHT22;7976;52.526;13.326;2023-03-23T05:25:20;11.50;99.90
15749;DHT22;7976;52.526;13.326;2023-03-23T05:28:12;11.50;99.90
15749;DHT22;7976;52.526;13.326;2023-03-23T05:30:51;11.50;99.90
15749;DHT22;7976;52.526;13.326;2023-03-23T05:33:19;11.50;99.90
15749;DHT22;7976;52.526;13.326;2023-03-23T05:35:58;11.50;99.90
15749;DHT22;7976;52.526;13.326;2023-03-23T05:38:30;11.50;99.90
15749;DHT22;7976;52.526;13.326;2023-03-23T05:40:58;11.50;99.90
15749;DHT22;7976;52.526;13.326;2023-03-23T05:43:29;11.50;99.90
15749;DHT22;7976;52.526;13.326;2023-03-23T05:46:08;11.50;99.90
15749;DHT22;7976;52.526;13.326;2023-03-23T05:48:37;11.40;99.90
15749;DHT22;7976;52.526;13.326;2023-03-23T05:51:09;11.40;99.90
15749;DHT22;7976;52.526;13.326;2023-03-23T05:53:43;11.30;99.90
15749;DHT22;7976;52.526;13.326;2023-03-23T05:56:12;11.20;99.90
15749;DHT22;7976;52.526;13.326;2023-03-23T05:58:54;11.20;99.90
15749;DHT22;7976;52.526;13.326;2023-03-23T06:01:21;11.20;99.90
15749;DHT22;7976;52.526;13.326;2023-03-23T06:03:49;11.20;99.90
15749;DHT22;7976;52.526;13.326;2023-03-23T06:06:22;11.10;99.90
15749;DHT22;7976;52.526;13.326;2023-03-23T06:09:04;11.10;99.90
15749;DHT22;7976;52.526;13.326;2023-03-23T06:11:42;11.10;99.90
15749;DHT22;7976;52.526;13.326;2023-03-23T06:14:33;11.10;99.90
15749;DHT22;7976;52.526;13.326;2023-03-23T06:17:00;11.10;99.90
15749;DHT22;7976;52.526;13.326;2023-03-23T06:19:27;11.10;99.90
15749;DHT22;7976;52.526;13.326;2023-03-23T06:22:02;11.00;99.90
15749;DHT22;7976;52.526;13.326;2023-03-23T06:24:42;11.00;99.90
15749;DHT22;7976;52.526;13.326;2023-03-23T06:27:12;11.00;99.90
15749;DHT22;7976;52.526;13.326;2023-03-23T06:29:42;11.00;99.90
15749;DHT22;7976;52.526;13.326;2023-03-23T06:32:10;10.90;99.90
15749;DHT22;7976;52.526;13.326;2023-03-23T06:34:41;10.90;99.90
15749;DHT22;7976;52.526;13.326;2023-03-23T06:37:27;11.00;99.90
15749;DHT22;7976;52.526;13.326;2023-03-23T06:40:04;10.90;99.90
15749;DHT22;7976;52.526;13.326;2023-03-23T06:42:46;11.00;99.90
15749;DHT22;7976;52.526;13.326;2023-03-23T06:45:45;10.90;99.90
15749;DHT22;7976;52.526;13.326;2023-03-23T06:48:38;10.90;99.90
15749;DHT22;7976;52.526;13.326;2023-03-23T06:51:08;10.90;99.90
15749;DHT22;7976;52.526;13.326;2023-03-23T06:53:37;11.00;99.90
15749;DHT22;7976;52.526;13.326;2023-03-23T06:56:06;11.00;99.90
15749;DHT22;7976;52.526;13.326;2023-03-23T06:58:34;11.00;99.90
15749;DHT22;7976;52.526;13.326;2023-03-23T07:01:03;11.00;99.90
15749;DHT22;7976;52.526;13.326;2023-03-23T07:03:38;11.00;99.90
15749;DHT22;7976;52.526;13.326;2023-03-23T07:06:07;11.00;99.90
15749;DHT22;7976;52.526;13.326;2023-03-23T07:08:40;11.10;99.90
15749;DHT22;7976;52.526;13.326;2023-03-23T07:11:12;11.10;99.90
15749;DHT22;7976;52.526;13.326;2023-03-23T07:13:39;11.10;99.90
15749;DHT22;7976;52.526;13.326;2023-03-23T07:16:09;11.10;99.90
15749;DHT22;7976;52.526;13.326;2023-03-23T07:18:36;11.10;99.90
15749;DHT22;7976;52.526;13.326;2023-03-23T07:21:05;11.10;99.90
15749;DHT22;7976;52.526;13.326;2023-03-23T07:23:32;11.10;99.90
15749;DHT22;7976;52.526;13.326;2023-03-23T07:26:05;11.10;99.90
15749;DHT22;7976;52.526;13.326;2023-03-23T07:28:38;11.10;99.90
15749;DHT22;7976;52.526;13.326;2023-03-23T07:31:26;11.20;99.90
15749;DHT22;7976;52.526;13.326;2023-03-23T07:33:55;11.20;99.90
15749;DHT22;7976;52.526;13.326;2023-03-23T07:36:26;11.20;99.90
15749;DHT22;7976;52.526;13.326;2023-03-23T07:38:53;11.20;99.90
15749;DHT22;7976;52.526;13.326;2023-03-23T07:41:21;11.30;99.90
15749;DHT22;7976;52.526;13.326;2023-03-23T07:43:50;11.30;99.90
15749;DHT22;7976;52.526;13.326;2023-03-23T07:46:23;11.30;99.90
15749;DHT22;7976;52.526;13.326;2023-03-23T07:49:11;11.30;99.90
15749;DHT22;7976;52.526;13.326;2023-03-23T07:51:44;11.40;99.90
15749;DHT22;7976;52.526;13.326;2023-03-23T07:54:13;11.40;99.90
15749;DHT22;7976;52.526;13.326;2023-03-23T07:56:56;11.40;99.90
15749;DHT22;7976;52.526;13.326;2023-03-23T07:59:26;11.40;99.90
15749;DHT22;7976;52.526;13.326;2023-03-23T08:01:56;11.50;99.90
15749;DHT22;7976;52.526;13.326;2023-03-23T08:04:33;11.50;99.90
15749;DHT22;7976;52.526;13.326;2023-03-23T08:07:25;11.50;99.90
15749;DHT22;7976;52.526;13.326;2023-03-23T08:10:18;11.50;99.90
15749;DHT22;7976;52.526;13.326;2023-03-23T08:13:16;11.60;99.90
15749;DHT22;7976;52.526;13.326;2023-03-23T08:15:52;11.60;99.90
15749;DHT22;7976;52.526;13.326;2023-03-23T08:18:38;11.60;99.90
15749;DHT22;7976;52.526;13.326;2023-03-23T08:21:25;11.60;99.90
15749;DHT22;7976;52.526;13.326;2023-03-23T08:24:01;11.60;99.90
15749;DHT22;7976;52.526;13.326;2023-03-23T08:26:46;11.60;99.90
15749;DHT22;7976;52.526;13.326;2023-03-23T08:29:25;11.60;99.90
15749;DHT22;7976;52.526;13.326;2023-03-23T08:32:18;11.60;99.90
15749;DHT22;7976;52.526;13.326;2023-03-23T08:35:08;11.70;99.90
15749;DHT22;7976;52.526;13.326;2023-03-23T08:37:47;11.60;99.90
15749;DHT22;7976;52.526;13.326;2023-03-23T08:40:35;11.60;99.90
15749;DHT22;7976;52.526;13.326;2023-03-23T08:43:21;11.70;99.90
15749;DHT22;7976;52.526;13.326;2023-03-23T08:46:15;11.80;99.90
15749;DHT22;7976;52.526;13.326;2023-03-23T08:49:09;11.80;99.90
15749;DHT22;7976;52.526;13.326;2023-03-23T08:52:11;12.00;99.90
15749;DHT22;7976;52.526;13.326;2023-03-23T08:55:05;12.10;99.90
15749;DHT22;7976;52.526;13.326;2023-03-23T08:57:52;12.20;99.90
15749;DHT22;7976;52.526;13.326;2023-03-23T09:00:38;12.20;99.90
15749;DHT22;7976;52.526;13.326;2023-03-23T09:03:13;12.20;99.90
15749;DHT22;7976;52.526;13.326;2023-03-23T09:06:00;12.30;99.90
15749;DHT22;7976;52.526;13.326;2023-03-23T09:08:49;12.50;99.90
15749;DHT22;7976;52.526;13.326;2023-03-23T09:11:17;12.50;99.90
15749;DHT22;7976;52.526;13.326;2023-03-23T09:13:45;12.50;99.90
15749;DHT22;7976;52.526;13.326;2023-03-23T09:16:12;12.50;99.90
15749;DHT22;7976;52.526;13.326;2023-03-23T09:18:39;12.50;99.90
15749;DHT22;7976;52.526;13.326;2023-03-23T09:21:06;12.50;99.90
15749;DHT22;7976;52.526;13.326;2023-03-23T09:23:33;12.50;99.90
15749;DHT22;7976;52.526;13.326;2023-03-23T09:26:01;12.50;99.90
15749;DHT22;7976;52.526;13.326;2023-03-23T09:28:30;12.60;99.90
15749;DHT22;7976;52.526;13.326;2023-03-23T09:30:57;12.60;99.90
15749;DHT22;7976;52.526;13.326;2023-03-23T09:33:25;12.60;99.90
15749;DHT22;7976;52.526;13.326;2023-03-23T09:35:54;12.70;99.90
15749;DHT22;7976;52.526;13.326;2023-03-23T09:38:21;12.80;99.90
15749;DHT22;7976;52.526;13.326;2023-03-23T09:40:53;12.90;99.90
15749;DHT22;7976;52.526;13.326;2023-03-23T09:43:50;12.90;99.90
15749;DHT22;7976;52.526;13.326;2023-03-23T09:46:38;13.00;99.90
15749;DHT22;7976;52.526;13.326;2023-03-23T09:49:32;13.10;99.90
15749;DHT22;7976;52.526;13.326;2023-03-23T09:52:08;13.10;99.90
15749;DHT22;7976;52.526;13.326;2023-03-23T09:54:39;13.20;99.90
15749;DHT22;7976;52.526;13.326;2023-03-23T09:57:12;13.30;99.90
15749;DHT22;7976;52.526;13.326;2023-03-23T09:59:56;13.30;99.90
15749;DHT22;7976;52.526;13.326;2023-03-23T10:02:40;13.40;99.90
15749;DHT22;7976;52.526;13.326;2023-03-23T10:05:25;13.60;99.90
15749;DHT22;7976;52.526;13.326;2023-03-23T10:07:58;13.70;99.90
15749;DHT22;7976;52.526;13.326;2023-03-23T10:10:32;13.70;99.90
15749;DHT22;7976;52.526;13.326;2023-03-23T10:13:15;13.70;99.90
15749;DHT22;7976;52.526;13.326;2023-03-23T10:15:51;13.70;99.90
15749;DHT22;7976;52.526;13.326;2023-03-23T10:18:25;13.70;99.90
15749;DHT22;7976;52.526;13.326;2023-03-23T10:21:03;13.70;99.90
15749;DHT22;7976;52.526;13.326;2023-03-23T10:23:44;13.80;99.90
15749;DHT22;7976;52.526;13.326;2023-03-23T10:26:29;13.80;99.90
15749;DHT22;7976;52.526;13.326;2023-03-23T10:29:16;13.80;99.90
15749;DHT22;7976;52.526;13.326;2023-03-23T10:31:51;13.90;99.90
15749;DHT22;7976;52.526;13.326;2023-03-23T10:34:26;14.00;99.90
15749;DHT22;7976;52.526;13.326;2023-03-23T10:37:02;14.00;99.90
15749;DHT22;7976;52.526;13.326;2023-03-23T10:39:40;14.00;99.90
15749;DHT22;7976;52.526;13.326;2023-03-23T10:42:22;14.10;99.90
15749;DHT22;7976;52.526;13.326;2023-03-23T10:44:50;14.20;99.90
15749;DHT22;7976;52.526;13.326;2023-03-23T10:47:18;14.30;99.90
15749;DHT22;7976;52.526;13.326;2023-03-23T10:49:49;14.40;99.90
15749;DHT22;7976;52.526;13.326;2023-03-23T10:52:27;14.40;99.90
15749;DHT22;7976;52.526;13.326;2023-03-23T10:55:05;14.40;99.90
15749;DHT22;7976;52.526;13.326;2023-03-23T10:57:35;14.40;99.90
15749;DHT22;7976;52.526;13.326;2023-03-23T11:00:06;14.40;99.90
15749;DHT22;7976;52.526;13.326;2023-03-23T11:02:46;14.40;99.90
15749;DHT22;7976;52.526;13.326;2023-03-23T11:05:26;14.30;99.90
15749;DHT22;7976;52.526;13.326;2023-03-23T11:08:00;14.40;99.90
15749;DHT22;7976;52.526;13.326;2023-03-23T11:10:35;14.30;99.90
15749;DHT22;7976;52.526;13.326;2023-03-23T11:13:03;14.30;99.90
15749;DHT22;7976;52.526;13.326;2023-03-23T11:15:37;14.30;99.90
15749;DHT22;7976;52.526;13.326;2023-03-23T11:18:10;14.30;99.90
15749;DHT22;7976;52.526;13.326;2023-03-23T11:20:40;14.20;99.90
15749;DHT22;7976;52.526;13.326;2023-03-23T11:23:19;14.20;99.90
15749;DHT22;7976;52.526;13.326;2023-03-23T11:25:54;14.20;99.90
15749;DHT22;7976;52.526;13.326;2023-03-23T11:28:31;14.20;99.90
15749;DHT22;7976;52.526;13.326;2023-03-23T11:31:03;14.30;99.90
15749;DHT22;7976;52.526;13.326;2023-03-23T11:33:38;14.50;99.90
15749;DHT22;7976;52.526;13.326;2023-03-23T11:36:09;14.60;99.90
15749;DHT22;7976;52.526;13.326;2023-03-23T11:38:40;14.70;99.90
15749;DHT22;7976;52.526;13.326;2023-03-23T11:41:10;14.70;99.90
15749;DHT22;7976;52.526;13.326;2023-03-23T11:43:44;14.80;99.90
15749;DHT22;7976;52.526;13.326;2023-03-23T11:46:22;14.80;99.90
15749;DHT22;7976;52.526;13.326;2023-03-23T11:49:01;14.80;99.90
15749;DHT22;7976;52.526;13.326;2023-03-23T11:51:36;14.90;99.90
15749;DHT22;7976;52.526;13.326;2023-03-23T11:54:13;14.90;99.90
15749;DHT22;7976;52.526;13.326;2023-03-23T11:56:46;14.90;99.90
15749;DHT22;7976;52.526;13.326;2023-03-23T11:59:16;15.00;99.90
15749;DHT22;7976;52.526;13.326;2023-03-23T12:01:51;15.10;99.90
15749;DHT22;7976;52.526;13.326;2023-03-23T12:04:40;15.00;99.90
15749;DHT22;7976;52.526;13.326;2023-03-23T12:07:43;15.20;99.90
15749;DHT22;7976;52.526;13.326;2023-03-23T12:10:27;15.20;99.90
15749;DHT22;7976;52.526;13.326;2023-03-23T12:13:13;15.20;99.90
15749;DHT22;7976;52.526;13.326;2023-03-23T12:15:53;15.10;99.90
15749;DHT22;7976;52.526;13.326;2023-03-23T12:18:32;15.10;99.90
15749;DHT22;7976;52.526;13.326;2023-03-23T12:21:18;15.10;99.90
15749;DHT22;7976;52.526;13.326;2023-03-23T12:24:05;15.10;99.90
15749;DHT22;7976;52.526;13.326;2023-03-23T12:26:46;15.10;99.90
15749;DHT22;7976;52.526;13.326;2023-03-23T12:32:48;15.10;99.90
15749;DHT22;7976;52.526;13.326;2023-03-23T12:35:38;15.10;99.90
15749;DHT22;7976;52.526;13.326;2023-03-23T12:38:55;15.20;99.90
15749;DHT22;7976;52.526;13.326;2023-03-23T12:41:41;15.20;99.90
15749;DHT22;7976;52.526;13.326;2023-03-23T12:44:18;15.30;99.90
15749;DHT22;7976;52.526;13.326;2023-03-23T12:47:16;15.30;99.90
15749;DHT22;7976;52.526;13.326;2023-03-23T12:49:56;15.30;99.90
15749;DHT22;7976;52.526;13.326;2023-03-23T12:52:32;15.40;99.90
15749;DHT22;7976;52.526;13.326;2023-03-23T12:55:16;15.40;99.90
15749;DHT22;7976;52.526;13.326;2023-03-23T12:57:54;15.50;99.90
15749;DHT22;7976;52.526;13.326;2023-03-23T13:00:28;15.50;99.90
15749;DHT22;7976;52.526;13.326;2023-03-23T13:03:02;15.70;99.90
15749;DHT22;7976;52.526;13.326;2023-03-23T13:05:42;15.80;99.90
15749;DHT22;7976;52.526;13.326;2023-03-23T13:08:23;15.90;99.90
15749;DHT22;7976;52.526;13.326;2023-03-23T13:10:57;16.10;99.90
15749;DHT22;7976;52.526;13.326;2023-03-23T13:13:44;16.00;99.90
15749;DHT22;7976;52.526;13.326;2023-03-23T13:16:22;16.00;99.90
15749;DHT22;7976;52.526;13.326;2023-03-23T13:19:06;16.00;99.90
15749;DHT22;7976;52.526;13.326;2023-03-23T13:21:44;15.90;99.90
15749;DHT22;7976;52.526;13.326;2023-03-23T13:24:19;15.90;99.90
15749;DHT22;7976;52.526;13.326;2023-03-23T13:26:55;15.90;99.90
15749;DHT22;7976;52.526;13.326;2023-03-23T13:29:27;15.80;99.90
15749;DHT22;7976;52.526;13.326;2023-03-23T13:32:06;15.80;99.90
15749;DHT22;7976;52.526;13.326;2023-03-23T13:34:39;15.80;99.90
15749;DHT22;7976;52.526;13.326;2023-03-23T13:37:11;15.80;99.90
15749;DHT22;7976;52.526;13.326;2023-03-23T13:39:50;15.90;99.90
15749;DHT22;7976;52.526;13.326;2023-03-23T13:42:24;15.90;99.90
15749;DHT22;7976;52.526;13.326;2023-03-23T13:45:05;16.00;99.90
15749;DHT22;7976;52.526;13.326;2023-03-23T13:47:44;16.00;99.90
15749;DHT22;7976;52.526;13.326;2023-03-23T13:50:25;16.10;99.90
15749;DHT22;7976;52.526;13.326;2023-03-23T13:52:58;16.10;99.90
15749;DHT22;7976;52.526;13.326;2023-03-23T13:55:39;16.10;99.90
15749;DHT22;7976;52.526;13.326;2023-03-23T13:58:22;16.20;99.90
15749;DHT22;7976;52.526;13.326;2023-03-23T14:01:03;16.10;99.90
15749;DHT22;7976;52.526;13.326;2023-03-23T14:03:42;16.10;99.90
15749;DHT22;7976;52.526;13.326;2023-03-23T14:06:14;16.20;99.90
15749;DHT22;7976;52.526;13.326;2023-03-23T14:09:10;16.30;99.90
15749;DHT22;7976;52.526;13.326;2023-03-23T14:11:49;16.40;99.90
15749;DHT22;7976;52.526;13.326;2023-03-23T14:14:26;16.40;99.90
15749;DHT22;7976;52.526;13.326;2023-03-23T14:17:05;16.40;99.90
15749;DHT22;7976;52.526;13.326;2023-03-23T14:19:38;16.30;99.90
15749;DHT22;7976;52.526;13.326;2023-03-23T14:22:17;16.30;99.90
15749;DHT22;7976;52.526;13.326;2023-03-23T14:24:46;16.30;99.90
15749;DHT22;7976;52.526;13.326;2023-03-23T14:27:18;16.30;99.90
15749;DHT22;7976;52.526;13.326;2023-03-23T14:29:58;16.30;99.90
15749;DHT22;7976;52.526;13.326;2023-03-23T14:32:27;16.40;99.90
15749;DHT22;7976;52.526;13.326;2023-03-23T14:34:58;16.50;99.90
15749;DHT22;7976;52.526;13.326;2023-03-23T14:37:31;16.50;99.90
15749;DHT22;7976;52.526;13.326;2023-03-23T14:39:58;16.50;99.90
15749;DHT22;7976;52.526;13.326;2023-03-23T14:42:44;16.40;99.90
15749;DHT22;7976;52.526;13.326;2023-03-23T14:45:15;16.40;99.90
15749;DHT22;7976;52.526;13.326;2023-03-23T14:47:45;16.20;99.90
15749;DHT22;7976;52.526;13.326;2023-03-23T14:50:27;16.20;99.90
15749;DHT22;7976;52.526;13.326;2023-03-23T14:53:07;16.10;99.90
15749;DHT22;7976;52.526;13.326;2023-03-23T14:55:37;16.10;99.90
15749;DHT22;7976;52.526;13.326;2023-03-23T14:58:13;16.00;99.90
15749;DHT22;7976;52.526;13.326;2023-03-23T15:00:46;16.10;99.90
15749;DHT22;7976;52.526;13.326;2023-03-23T15:03:20;16.20;99.90
15749;DHT22;7976;52.526;13.326;2023-03-23T15:05:51;16.20;99.90
15749;DHT22;7976;52.526;13.326;2023-03-23T15:08:25;16.20;99.90
15749;DHT22;7976;52.526;13.326;2023-03-23T15:11:03;16.10;99.90
15749;DHT22;7976;52.526;13.326;2023-03-23T15:13:34;16.10;99.90
15749;DHT22;7976;52.526;13.326;2023-03-23T15:16:12;16.00;99.90
15749;DHT22;7976;52.526;13.326;2023-03-23T15:18:48;15.90;99.90
15749;DHT22;7976;52.526;13.326;2023-03-23T15:21:24;15.90;99.90
15749;DHT22;7976;52.526;13.326;2023-03-23T15:23:54;15.90;99.90
15749;DHT22;7976;52.526;13.326;2023-03-23T15:26:31;15.80;99.90
15749;DHT22;7976;52.526;13.326;2023-03-23T15:29:10;15.80;99.90
15749;DHT22;7976;52.526;13.326;2023-03-23T15:31:41;15.80;99.90
15749;DHT22;7976;52.526;13.326;2023-03-23T15:34:18;15.70;99.90
15749;DHT22;7976;52.526;13.326;2023-03-23T15:36:54;15.70;99.90
15749;DHT22;7976;52.526;13.326;2023-03-23T15:39:23;15.70;99.90
15749;DHT22;7976;52.526;13.326;2023-03-23T15:41:51;15.60;99.90
15749;DHT22;7976;52.526;13.326;2023-03-23T15:44:25;15.60;99.90
15749;DHT22;7976;52.526;13.326;2023-03-23T15:47:14;15.50;99.90
15749;DHT22;7976;52.526;13.326;2023-03-23T15:49:44;15.50;99.90
15749;DHT22;7976;52.526;13.326;2023-03-23T15:52:13;15.40;99.90
15749;DHT22;7976;52.526;13.326;2023-03-23T15:54:47;15.40;99.90
15749;DHT22;7976;52.526;13.326;2023-03-23T15:57:14;15.50;99.90
15749;DHT22;7976;52.526;13.326;2023-03-23T15:59:41;15.50;99.90
15749;DHT22;7976;52.526;13.326;2023-03-23T16:02:17;15.50;99.90
15749;DHT22;7976;52.526;13.326;2023-03-23T16:04:47;15.50;99.90
15749;DHT22;7976;52.526;13.326;2023-03-23T16:07:15;15.50;99.90
15749;DHT22;7976;52.526;13.326;2023-03-23T16:09:41;15.50;99.90
15749;DHT22;7976;52.526;13.326;2023-03-23T16:12:10;15.40;99.90
15749;DHT22;7976;52.526;13.326;2023-03-23T16:14:38;15.40;99.90
15749;DHT22;7976;52.526;13.326;2023-03-23T16:17:09;15.40;99.90
15749;DHT22;7976;52.526;13.326;2023-03-23T16:19:41;15.40;99.90
15749;DHT22;7976;52.526;13.326;2023-03-23T16:22:09;15.30;99.90
15749;DHT22;7976;52.526;13.326;2023-03-23T16:24:36;15.30;99.90